sensor_id;sensor_type;location;lat;lon;timestamp;pressure;altitude;pressure_sealevel;temperature;humidity
63096;BME280;49184;55.596;37.770;2022-12-05T00:04:08;102517.16;;;-8.59;54.88
63096;BME280;49184;55.596;37.770;2022-12-05T00:06:39;102474.44;;;-8.80;54.65
63096;BME280;49184;55.596;37.770;2022-12-05T00:09:08;102493.41;;;-8.73;54.60
63096;BME280;49184;55.596;37.770;2022-12-05T00:11:38;102513.31;;;-8.55;54.45
63096;BME280;49184;55.596;37.770;2022-12-05T00:14:07;102581.00;;;-8.13;54.48
63096;BME280;49184;55.596;37.770;2022-12-05T00:16:41;102492.31;;;-8.58;54.47
63096;BME280;49184;55.596;37.770;2022-12-05T00:19:13;102532.63;;;-8.29;54.35
63096;BME280;49184;55.596;37.770;2022-12-05T00:21:41;102502.47;;;-8.52;54.21
63096;BME280;49184;55.596;37.770;2022-12-05T00:24:12;102534.66;;;-8.33;54.12
63096;BME280;49184;55.596;37.770;2022-12-05T00:26:39;102567.91;;;-8.03;53.92
63096;BME280;49184;55.596;37.770;2022-12-05T00:29:05;102466.78;;;-8.72;54.11
63096;BME280;49184;55.596;37.770;2022-12-05T00:31:32;102568.34;;;-8.09;54.34
63096;BME280;49184;55.596;37.770;2022-12-05T00:34:01;102569.19;;;-8.09;54.17
63096;BME280;49184;55.596;37.770;2022-12-05T00:36:30;102560.00;;;-8.29;54.25
63096;BME280;49184;55.596;37.770;2022-12-05T00:39:17;102499.47;;;-8.84;55.09
63096;BME280;49184;55.596;37.770;2022-12-05T00:41:43;102526.06;;;-8.60;55.13
63096;BME280;49184;55.596;37.770;2022-12-05T00:44:11;102529.03;;;-8.65;54.92
63096;BME280;49184;55.596;37.770;2022-12-05T00:46:38;102487.50;;;-8.90;55.19
63096;BME280;49184;55.596;37.770;2022-12-05T00:49:05;102489.31;;;-9.03;55.03
63096;BME280;49184;55.596;37.770;2022-12-05T00:51:37;102537.41;;;-8.71;55.29
63096;BME280;49184;55.596;37.770;2022-12-05T00:54:10;102475.41;;;-8.94;54.97
63096;BME280;49184;55.596;37.770;2022-12-05T00:56:36;102473.00;;;-8.97;54.86
63096;BME280;49184;55.596;37.770;2022-12-05T00:59:03;102462.69;;;-9.14;54.57
63096;BME280;49184;55.596;37.770;2022-12-05T01:01:35;102550.56;;;-8.44;54.72
63096;BME280;49184;55.596;37.770;2022-12-05T01:04:04;102510.81;;;-8.69;54.50
63096;BME280;49184;55.596;37.770;2022-12-05T01:07:00;102461.84;;;-9.15;54.58
63096;BME280;49184;55.596;37.770;2022-12-05T01:09:27;102477.13;;;-9.06;54.84
63096;BME280;49184;55.596;37.770;2022-12-05T01:11:53;102546.88;;;-8.54;54.38
63096;BME280;49184;55.596;37.770;2022-12-05T01:14:21;102550.66;;;-8.45;54.23
63096;BME280;49184;55.596;37.770;2022-12-05T01:16:49;102479.75;;;-8.80;54.04
63096;BME280;49184;55.596;37.770;2022-12-05T01:19:27;102439.69;;;-9.14;54.26
63096;BME280;49184;55.596;37.770;2022-12-05T01:21:57;102424.97;;;-9.18;54.32
63096;BME280;49184;55.596;37.770;2022-12-05T01:24:32;102462.47;;;-8.99;54.52
63096;BME280;49184;55.596;37.770;2022-12-05T01:26:58;102530.94;;;-8.54;54.55
63096;BME280;49184;55.596;37.770;2022-12-05T01:29:25;102429.63;;;-9.09;54.30
63096;BME280;49184;55.596;37.770;2022-12-05T01:31:51;102525.16;;;-8.48;54.32
63096;BME280;49184;55.596;37.770;2022-12-05T01:34:18;102474.94;;;-8.75;54.47
63096;BME280;49184;55.596;37.770;2022-12-05T01:37:09;102508.31;;;-8.47;54.30
63096;BME280;49184;55.596;37.770;2022-12-05T01:39:48;102470.72;;;-8.78;54.04
63096;BME280;49184;55.596;37.770;2022-12-05T01:42:17;102417.63;;;-9.02;54.24
63096;BME280;49184;55.596;37.770;2022-12-05T01:47:20;102408.00;;;-9.03;53.61
63096;BME280;49184;55.596;37.770;2022-12-05T01:52:24;102451.72;;;-8.84;53.88
63096;BME280;49184;55.596;37.770;2022-12-05T01:54:54;102493.81;;;-8.54;54.22
63096;BME280;49184;55.596;37.770;2022-12-05T01:58:21;102426.97;;;-8.96;53.67
63096;BME280;49184;55.596;37.770;2022-12-05T02:00:52;102473.47;;;-8.66;53.57
63096;BME280;49184;55.596;37.770;2022-12-05T02:03:22;102409.69;;;-9.02;53.59
63096;BME280;49184;55.596;37.770;2022-12-05T02:05:56;102475.06;;;-8.64;53.77
63096;BME280;49184;55.596;37.770;2022-12-05T02:08:26;102418.47;;;-9.01;53.76
63096;BME280;49184;55.596;37.770;2022-12-05T02:10:55;102475.16;;;-8.65;53.81
63096;BME280;49184;55.596;37.770;2022-12-05T02:22:36;102495.31;;;-8.63;54.00
63096;BME280;49184;55.596;37.770;2022-12-05T02:31:17;102416.50;;;-9.36;54.62
63096;BME280;49184;55.596;37.770;2022-12-05T02:34:32;102444.91;;;-9.38;54.92
63096;BME280;49184;55.596;37.770;2022-12-05T02:46:13;102471.91;;;-8.94;54.60
63096;BME280;49184;55.596;37.770;2022-12-05T02:48:56;102433.75;;;-9.17;54.42
63096;BME280;49184;55.596;37.770;2022-12-05T02:51:28;102421.72;;;-9.60;55.23
63096;BME280;49184;55.596;37.770;2022-12-05T02:54:10;102344.59;;;-9.94;54.83
63096;BME280;49184;55.596;37.770;2022-12-05T02:56:40;102439.94;;;-9.30;55.12
63096;BME280;49184;55.596;37.770;2022-12-05T02:59:14;102421.28;;;-9.28;54.62
63096;BME280;49184;55.596;37.770;2022-12-05T03:01:44;102399.34;;;-9.43;54.68
63096;BME280;49184;55.596;37.770;2022-12-05T03:04:24;102410.03;;;-9.32;54.45
63096;BME280;49184;55.596;37.770;2022-12-05T03:06:54;102353.72;;;-9.72;54.24
63096;BME280;49184;55.596;37.770;2022-12-05T03:09:53;102448.59;;;-9.02;54.29
63096;BME280;49184;55.596;37.770;2022-12-05T03:12:49;102454.66;;;-9.00;54.38
63096;BME280;49184;55.596;37.770;2022-12-05T03:15:24;102411.63;;;-9.29;54.19
63096;BME280;49184;55.596;37.770;2022-12-05T03:17:56;102339.22;;;-9.66;54.07
63096;BME280;49184;55.596;37.770;2022-12-05T03:20:46;102450.91;;;-8.98;54.18
63096;BME280;49184;55.596;37.770;2022-12-05T03:23:40;102368.28;;;-9.41;54.30
63096;BME280;49184;55.596;37.770;2022-12-05T03:32:42;102451.38;;;-9.04;54.56
63096;BME280;49184;55.596;37.770;2022-12-05T03:48:37;102428.75;;;-8.96;53.54
63096;BME280;49184;55.596;37.770;2022-12-05T03:51:36;102435.97;;;-8.99;53.54
63096;BME280;49184;55.596;37.770;2022-12-05T03:54:28;102409.28;;;-9.08;53.18
63096;BME280;49184;55.596;37.770;2022-12-05T04:00:03;102352.19;;;-9.38;53.23
63096;BME280;49184;55.596;37.770;2022-12-05T04:06:00;102326.19;;;-9.57;53.32
63096;BME280;49184;55.596;37.770;2022-12-05T04:08:34;102406.59;;;-8.95;53.16
63096;BME280;49184;55.596;37.770;2022-12-05T04:11:15;102332.41;;;-9.45;53.06
63096;BME280;49184;55.596;37.770;2022-12-05T04:14:10;102415.59;;;-8.98;53.49
63096;BME280;49184;55.596;37.770;2022-12-05T04:16:41;102401.00;;;-9.04;53.28
63096;BME280;49184;55.596;37.770;2022-12-05T04:22:33;102328.91;;;-9.58;53.32
63096;BME280;49184;55.596;37.770;2022-12-05T04:25:09;102276.75;;;-9.95;53.58
63096;BME280;49184;55.596;37.770;2022-12-05T04:32:01;102396.22;;;-9.11;53.60
63096;BME280;49184;55.596;37.770;2022-12-05T04:34:13;102353.03;;;-9.37;53.53
63096;BME280;49184;55.596;37.770;2022-12-05T04:36:59;102386.78;;;-9.03;53.46
63096;BME280;49184;55.596;37.770;2022-12-05T04:39:48;102390.69;;;-8.95;53.12
63096;BME280;49184;55.596;37.770;2022-12-05T04:42:21;102333.66;;;-9.38;52.95
63096;BME280;49184;55.596;37.770;2022-12-05T04:44:57;102321.38;;;-9.52;53.15
63096;BME280;49184;55.596;37.770;2022-12-05T04:47:30;102313.97;;;-9.47;52.81
63096;BME280;49184;55.596;37.770;2022-12-05T04:49:58;102288.34;;;-9.46;52.76
63096;BME280;49184;55.596;37.770;2022-12-05T04:52:46;102280.59;;;-9.49;52.95
63096;BME280;49184;55.596;37.770;2022-12-05T04:55:18;102301.50;;;-9.20;52.42
63096;BME280;49184;55.596;37.770;2022-12-05T04:58:25;102368.69;;;-8.85;52.44
63096;BME280;49184;55.596;37.770;2022-12-05T05:01:33;102371.53;;;-8.75;52.26
63096;BME280;49184;55.596;37.770;2022-12-05T05:06:58;102336.66;;;-9.06;52.43
63096;BME280;49184;55.596;37.770;2022-12-05T05:09:45;102374.84;;;-8.84;52.70
63096;BME280;49184;55.596;37.770;2022-12-05T05:12:42;102365.63;;;-8.79;52.55
63096;BME280;49184;55.596;37.770;2022-12-05T05:15:08;102310.63;;;-9.25;52.53
63096;BME280;49184;55.596;37.770;2022-12-05T05:17:35;102312.25;;;-9.35;52.25
63096;BME280;49184;55.596;37.770;2022-12-05T05:20:03;102372.97;;;-8.95;52.33
63096;BME280;49184;55.596;37.770;2022-12-05T05:22:53;102382.97;;;-8.99;52.22
63096;BME280;49184;55.596;37.770;2022-12-05T05:25:20;102347.34;;;-9.07;52.24
63096;BME280;49184;55.596;37.770;2022-12-05T05:27:52;102322.06;;;-9.24;52.20
63096;BME280;49184;55.596;37.770;2022-12-05T05:30:19;102300.94;;;-9.37;52.33
63096;BME280;49184;55.596;37.770;2022-12-05T05:32:47;102349.16;;;-9.08;52.07
63096;BME280;49184;55.596;37.770;2022-12-05T05:35:15;102372.34;;;-8.99;51.88
63096;BME280;49184;55.596;37.770;2022-12-05T05:37:50;102342.38;;;-9.12;51.98
63096;BME280;49184;55.596;37.770;2022-12-05T05:40:24;102247.41;;;-9.79;52.04
63096;BME280;49184;55.596;37.770;2022-12-05T05:42:50;102375.78;;;-9.09;52.32
63096;BME280;49184;55.596;37.770;2022-12-05T05:45:25;102300.19;;;-9.52;52.46
63096;BME280;49184;55.596;37.770;2022-12-05T05:48:17;102363.16;;;-9.06;52.48
63096;BME280;49184;55.596;37.770;2022-12-05T05:50:46;102289.72;;;-9.53;51.93
63096;BME280;49184;55.596;37.770;2022-12-05T05:53:34;102358.41;;;-9.13;52.10
63096;BME280;49184;55.596;37.770;2022-12-05T05:56:13;102303.38;;;-9.47;52.25
63096;BME280;49184;55.596;37.770;2022-12-05T05:59:04;102353.53;;;-9.07;52.21
63096;BME280;49184;55.596;37.770;2022-12-05T06:04:36;102301.44;;;-9.32;52.36
63096;BME280;49184;55.596;37.770;2022-12-05T06:07:12;102353.22;;;-8.91;51.89
63096;BME280;49184;55.596;37.770;2022-12-05T06:09:59;102287.63;;;-9.24;51.95
63096;BME280;49184;55.596;37.770;2022-12-05T06:22:51;102306.66;;;-8.82;51.50
63096;BME280;49184;55.596;37.770;2022-12-05T06:25:22;102248.91;;;-9.14;51.42
63096;BME280;49184;55.596;37.770;2022-12-05T06:31:27;102329.34;;;-8.54;51.84
63096;BME280;49184;55.596;37.770;2022-12-05T06:34:08;102269.56;;;-8.71;51.20
63096;BME280;49184;55.596;37.770;2022-12-05T06:36:35;102308.38;;;-8.46;51.37
63096;BME280;49184;55.596;37.770;2022-12-05T06:39:13;102311.78;;;-8.44;51.44
63096;BME280;49184;55.596;37.770;2022-12-05T06:42:00;102305.09;;;-8.61;52.60
63096;BME280;49184;55.596;37.770;2022-12-05T06:44:28;102278.50;;;-8.72;52.97
63096;BME280;49184;55.596;37.770;2022-12-05T06:50:13;102318.44;;;-8.62;54.55
63096;BME280;49184;55.596;37.770;2022-12-05T06:52:39;102276.72;;;-8.95;54.66
63096;BME280;49184;55.596;37.770;2022-12-05T06:55:40;102337.81;;;-8.38;54.76
63096;BME280;49184;55.596;37.770;2022-12-05T06:58:06;102298.03;;;-8.38;54.73
63096;BME280;49184;55.596;37.770;2022-12-05T07:04:32;102332.94;;;-8.09;54.69
63096;BME280;49184;55.596;37.770;2022-12-05T07:07:13;102293.72;;;-8.16;54.44
63096;BME280;49184;55.596;37.770;2022-12-05T07:09:39;102285.63;;;-8.15;54.22
63096;BME280;49184;55.596;37.770;2022-12-05T07:12:17;102270.56;;;-8.14;54.30
63096;BME280;49184;55.596;37.770;2022-12-05T07:14:50;102312.34;;;-7.83;54.34
63096;BME280;49184;55.596;37.770;2022-12-05T07:17:28;102247.91;;;-8.07;54.66
63096;BME280;49184;55.596;37.770;2022-12-05T07:20:00;102319.38;;;-7.70;54.15
63096;BME280;49184;55.596;37.770;2022-12-05T07:22:34;102217.00;;;-8.19;53.87
63096;BME280;49184;55.596;37.770;2022-12-05T07:25:01;102265.13;;;-8.01;54.38
63096;BME280;49184;55.596;37.770;2022-12-05T07:27:32;102296.94;;;-7.77;54.25
63096;BME280;49184;55.596;37.770;2022-12-05T07:30:20;102268.03;;;-8.05;54.50
63096;BME280;49184;55.596;37.770;2022-12-05T07:32:46;102273.97;;;-7.78;54.87
63096;BME280;49184;55.596;37.770;2022-12-05T07:38:56;102316.34;;;-7.66;55.00
63096;BME280;49184;55.596;37.770;2022-12-05T07:42:12;102230.50;;;-8.22;54.73
63096;BME280;49184;55.596;37.770;2022-12-05T07:44:45;102308.88;;;-7.61;54.33
63096;BME280;49184;55.596;37.770;2022-12-05T07:47:11;102250.19;;;-7.80;54.30
63096;BME280;49184;55.596;37.770;2022-12-05T07:49:38;102230.03;;;-7.83;53.79
63096;BME280;49184;55.596;37.770;2022-12-05T07:52:28;102300.28;;;-7.30;53.43
63096;BME280;49184;55.596;37.770;2022-12-05T07:55:13;102189.38;;;-7.94;53.44
63096;BME280;49184;55.596;37.770;2022-12-05T07:57:39;102228.81;;;-7.56;53.21
63096;BME280;49184;55.596;37.770;2022-12-05T08:00:05;102203.94;;;-7.66;53.11
63096;BME280;49184;55.596;37.770;2022-12-05T08:02:38;102237.72;;;-7.35;52.88
63096;BME280;49184;55.596;37.770;2022-12-05T08:05:34;102260.78;;;-7.35;53.11
63096;BME280;49184;55.596;37.770;2022-12-05T08:08:01;102250.56;;;-7.51;53.29
63096;BME280;49184;55.596;37.770;2022-12-05T08:13:57;102231.59;;;-7.91;53.61
63096;BME280;49184;55.596;37.770;2022-12-05T08:16:28;102231.88;;;-7.94;54.09
63096;BME280;49184;55.596;37.770;2022-12-05T08:19:04;102238.25;;;-7.97;53.95
63096;BME280;49184;55.596;37.770;2022-12-05T08:21:57;102274.94;;;-7.57;54.37
63096;BME280;49184;55.596;37.770;2022-12-05T08:24:24;102248.00;;;-7.52;54.11
63096;BME280;49184;55.596;37.770;2022-12-05T08:26:50;102270.81;;;-7.39;54.09
63096;BME280;49184;55.596;37.770;2022-12-05T08:29:20;102258.94;;;-7.23;53.98
63096;BME280;49184;55.596;37.770;2022-12-05T08:32:08;102268.59;;;-7.22;53.78
63096;BME280;49184;55.596;37.770;2022-12-05T08:34:34;102214.81;;;-7.58;53.71
63096;BME280;49184;55.596;37.770;2022-12-05T08:37:06;102210.56;;;-7.49;53.95
63096;BME280;49184;55.596;37.770;2022-12-05T08:39:35;102242.09;;;-7.56;54.21
63096;BME280;49184;55.596;37.770;2022-12-05T08:42:35;102246.41;;;-7.33;54.29
63096;BME280;49184;55.596;37.770;2022-12-05T08:45:02;102200.41;;;-7.44;54.11
63096;BME280;49184;55.596;37.770;2022-12-05T08:47:29;102188.56;;;-7.40;53.86
63096;BME280;49184;55.596;37.770;2022-12-05T08:50:24;102185.16;;;-7.31;53.45
63096;BME280;49184;55.596;37.770;2022-12-05T08:52:52;102164.75;;;-7.42;53.55
63096;BME280;49184;55.596;37.770;2022-12-05T08:55:18;102177.78;;;-7.27;53.35
63096;BME280;49184;55.596;37.770;2022-12-05T08:57:45;102172.63;;;-7.40;53.24
63096;BME280;49184;55.596;37.770;2022-12-05T09:00:24;102185.38;;;-7.23;53.23
63096;BME280;49184;55.596;37.770;2022-12-05T09:02:51;102229.16;;;-6.74;53.21
63096;BME280;49184;55.596;37.770;2022-12-05T09:05:34;102158.75;;;-6.91;52.74
63096;BME280;49184;55.596;37.770;2022-12-05T09:08:25;102226.44;;;-6.63;52.67
63096;BME280;49184;55.596;37.770;2022-12-05T09:10:51;102223.59;;;-6.71;52.97
63096;BME280;49184;55.596;37.770;2022-12-05T09:13:46;102216.59;;;-6.51;52.86
63096;BME280;49184;55.596;37.770;2022-12-05T09:16:23;102215.88;;;-6.32;52.82
63096;BME280;49184;55.596;37.770;2022-12-05T09:18:51;102148.78;;;-6.77;52.73
63096;BME280;49184;55.596;37.770;2022-12-05T09:21:31;102175.09;;;-6.32;52.71
63096;BME280;49184;55.596;37.770;2022-12-05T09:24:11;102140.66;;;-6.55;52.32
63096;BME280;49184;55.596;37.770;2022-12-05T09:26:40;102201.31;;;-5.97;52.19
63096;BME280;49184;55.596;37.770;2022-12-05T09:29:07;102142.91;;;-6.20;52.00
63096;BME280;49184;55.596;37.770;2022-12-05T09:31:34;102116.22;;;-6.08;51.71
63096;BME280;49184;55.596;37.770;2022-12-05T09:34:03;102148.50;;;-5.82;51.65
63096;BME280;49184;55.596;37.770;2022-12-05T09:36:31;102164.44;;;-5.42;51.41
63096;BME280;49184;55.596;37.770;2022-12-05T09:39:03;102128.38;;;-5.36;50.73
63096;BME280;49184;55.596;37.770;2022-12-05T09:48:03;102111.13;;;-5.32;49.71
63096;BME280;49184;55.596;37.770;2022-12-05T09:53:26;102166.97;;;-4.82;50.29
63096;BME280;49184;55.596;37.770;2022-12-05T10:01:03;102153.63;;;-4.63;49.36
63096;BME280;49184;55.596;37.770;2022-12-05T10:04:20;102144.25;;;-4.86;49.66
63096;BME280;49184;55.596;37.770;2022-12-05T10:08:01;102097.63;;;-5.02;49.35
63096;BME280;49184;55.596;37.770;2022-12-05T10:11:06;102147.28;;;-4.62;48.95
63096;BME280;49184;55.596;37.770;2022-12-05T10:16:51;102097.88;;;-4.85;48.97
63096;BME280;49184;55.596;37.770;2022-12-05T10:19:26;102106.88;;;-4.77;49.13
63096;BME280;49184;55.596;37.770;2022-12-05T10:22:18;102131.44;;;-4.73;49.10
63096;BME280;49184;55.596;37.770;2022-12-05T10:24:51;102086.94;;;-4.82;49.25
63096;BME280;49184;55.596;37.770;2022-12-05T10:27:27;102126.22;;;-4.65;49.48
63096;BME280;49184;55.596;37.770;2022-12-05T10:32:56;102135.59;;;-4.51;49.25
63096;BME280;49184;55.596;37.770;2022-12-05T10:35:37;102103.47;;;-4.69;49.22
63096;BME280;49184;55.596;37.770;2022-12-05T10:38:26;102122.72;;;-4.28;48.28
63096;BME280;49184;55.596;37.770;2022-12-05T10:40:58;102029.13;;;-5.11;48.28
63096;BME280;49184;55.596;37.770;2022-12-05T10:46:39;102106.56;;;-4.27;47.82
63096;BME280;49184;55.596;37.770;2022-12-05T10:49:12;102091.53;;;-4.75;47.50
63096;BME280;49184;55.596;37.770;2022-12-05T10:51:47;102094.09;;;-4.83;48.12
63096;BME280;49184;55.596;37.770;2022-12-05T10:54:25;102073.16;;;-4.87;48.07
63096;BME280;49184;55.596;37.770;2022-12-05T10:57:32;102075.81;;;-4.87;48.37
63096;BME280;49184;55.596;37.770;2022-12-05T11:00:14;102057.63;;;-5.21;48.99
63096;BME280;49184;55.596;37.770;2022-12-05T11:02:48;102118.19;;;-4.55;48.64
63096;BME280;49184;55.596;37.770;2022-12-05T11:05:27;102119.31;;;-4.58;48.50
63096;BME280;49184;55.596;37.770;2022-12-05T11:07:58;102086.22;;;-4.37;48.33
63096;BME280;49184;55.596;37.770;2022-12-05T11:10:36;102092.25;;;-4.35;48.20
63096;BME280;49184;55.596;37.770;2022-12-05T11:13:25;102093.50;;;-4.30;48.06
63096;BME280;49184;55.596;37.770;2022-12-05T11:19:17;102097.41;;;-4.24;48.24
63096;BME280;49184;55.596;37.770;2022-12-05T11:21:51;102084.25;;;-4.35;47.92
63096;BME280;49184;55.596;37.770;2022-12-05T11:24:43;102025.13;;;-4.87;47.83
63096;BME280;49184;55.596;37.770;2022-12-05T11:27:40;102085.97;;;-4.54;48.21
63096;BME280;49184;55.596;37.770;2022-12-05T11:30:31;102058.84;;;-4.86;48.09
63096;BME280;49184;55.596;37.770;2022-12-05T11:33:17;102091.66;;;-4.66;48.33
63096;BME280;49184;55.596;37.770;2022-12-05T11:35:45;102070.91;;;-4.73;48.47
63096;BME280;49184;55.596;37.770;2022-12-05T11:38:20;102040.31;;;-4.98;48.84
63096;BME280;49184;55.596;37.770;2022-12-05T11:47:16;102057.44;;;-4.90;49.08
63096;BME280;49184;55.596;37.770;2022-12-05T11:54:53;102068.00;;;-4.52;48.64
63096;BME280;49184;55.596;37.770;2022-12-05T12:01:16;102074.75;;;-4.57;49.17
63096;BME280;49184;55.596;37.770;2022-12-05T12:07:16;102039.47;;;-4.51;48.47
63096;BME280;49184;55.596;37.770;2022-12-05T12:10:03;102059.06;;;-4.33;48.79
63096;BME280;49184;55.596;37.770;2022-12-05T12:13:09;102047.16;;;-4.38;48.39
63096;BME280;49184;55.596;37.770;2022-12-05T12:16:09;102047.94;;;-4.28;48.84
63096;BME280;49184;55.596;37.770;2022-12-05T12:21:50;101983.78;;;-4.74;49.02
63096;BME280;49184;55.596;37.770;2022-12-05T12:33:45;102027.34;;;-4.73;49.98
63096;BME280;49184;55.596;37.770;2022-12-05T12:36:59;102014.84;;;-4.73;50.14
63096;BME280;49184;55.596;37.770;2022-12-05T12:40:11;102014.97;;;-4.37;49.97
63096;BME280;49184;55.596;37.770;2022-12-05T12:52:22;102000.88;;;-4.11;49.04
63096;BME280;49184;55.596;37.770;2022-12-05T12:55:20;101992.16;;;-4.31;49.74
63096;BME280;49184;55.596;37.770;2022-12-05T13:05:04;102000.00;;;-4.02;49.51
63096;BME280;49184;55.596;37.770;2022-12-05T13:10:56;101924.69;;;-4.51;49.34
63096;BME280;49184;55.596;37.770;2022-12-05T13:13:52;101996.78;;;-4.06;49.45
63096;BME280;49184;55.596;37.770;2022-12-05T13:16:25;101956.06;;;-4.35;49.69
63096;BME280;49184;55.596;37.770;2022-12-05T13:18:54;101932.31;;;-4.56;49.96
63096;BME280;49184;55.596;37.770;2022-12-05T13:21:25;101916.59;;;-4.59;49.84
63096;BME280;49184;55.596;37.770;2022-12-05T13:23:54;101948.28;;;-4.46;50.10
63096;BME280;49184;55.596;37.770;2022-12-05T13:26:22;101948.94;;;-4.44;49.91
63096;BME280;49184;55.596;37.770;2022-12-05T13:28:58;101912.38;;;-4.62;49.59
63096;BME280;49184;55.596;37.770;2022-12-05T13:31:40;101949.72;;;-4.34;49.93
63096;BME280;49184;55.596;37.770;2022-12-05T13:35:02;101943.78;;;-4.46;49.81
63096;BME280;49184;55.596;37.770;2022-12-05T13:37:29;101941.94;;;-4.45;49.97
63096;BME280;49184;55.596;37.770;2022-12-05T13:40:49;101972.09;;;-4.17;49.84
63096;BME280;49184;55.596;37.770;2022-12-05T13:43:41;101908.06;;;-4.45;49.58
63096;BME280;49184;55.596;37.770;2022-12-05T13:46:30;101923.78;;;-4.42;49.65
63096;BME280;49184;55.596;37.770;2022-12-05T13:49:42;101973.34;;;-4.12;49.71
63096;BME280;49184;55.596;37.770;2022-12-05T13:52:22;101914.53;;;-4.47;49.73
63096;BME280;49184;55.596;37.770;2022-12-05T13:55:31;101970.00;;;-4.14;49.62
63096;BME280;49184;55.596;37.770;2022-12-05T14:04:00;101907.69;;;-4.78;50.19
63096;BME280;49184;55.596;37.770;2022-12-05T14:15:00;101938.88;;;-4.78;51.34
63096;BME280;49184;55.596;37.770;2022-12-05T14:17:41;101934.03;;;-4.65;51.04
63096;BME280;49184;55.596;37.770;2022-12-05T14:28:24;101925.56;;;-4.88;51.70
63096;BME280;49184;55.596;37.770;2022-12-05T14:34:22;101935.50;;;-4.80;51.73
63096;BME280;49184;55.596;37.770;2022-12-05T14:37:27;101923.25;;;-5.01;52.34
63096;BME280;49184;55.596;37.770;2022-12-05T14:48:33;101898.22;;;-4.90;51.80
63096;BME280;49184;55.596;37.770;2022-12-05T14:51:54;101894.84;;;-4.92;51.95
63096;BME280;49184;55.596;37.770;2022-12-05T14:54:25;101809.63;;;-5.49;51.66
63096;BME280;49184;55.596;37.770;2022-12-05T14:57:10;101829.63;;;-5.35;51.50
63096;BME280;49184;55.596;37.770;2022-12-05T15:00:36;101797.16;;;-5.48;51.43
63096;BME280;49184;55.596;37.770;2022-12-05T15:03:18;101811.44;;;-5.39;51.76
63096;BME280;49184;55.596;37.770;2022-12-05T15:06:26;101896.94;;;-4.86;51.72
63096;BME280;49184;55.596;37.770;2022-12-05T15:11:45;101878.56;;;-4.89;51.67
63096;BME280;49184;55.596;37.770;2022-12-05T15:14:42;101883.34;;;-4.92;52.39
63096;BME280;49184;55.596;37.770;2022-12-05T15:17:23;101770.53;;;-5.58;52.20
63096;BME280;49184;55.596;37.770;2022-12-05T15:27:10;101880.94;;;-4.68;51.19
63096;BME280;49184;55.596;37.770;2022-12-05T15:29:40;101823.72;;;-5.01;51.26
63096;BME280;49184;55.596;37.770;2022-12-05T15:32:21;101765.69;;;-5.45;51.02
63096;BME280;49184;55.596;37.770;2022-12-05T15:35:12;101836.91;;;-5.00;50.78
63096;BME280;49184;55.596;37.770;2022-12-05T15:41:40;101867.81;;;-4.79;51.22
63096;BME280;49184;55.596;37.770;2022-12-05T15:47:37;101828.91;;;-5.00;50.97
63096;BME280;49184;55.596;37.770;2022-12-05T15:59:46;101770.41;;;-5.29;51.16
63096;BME280;49184;55.596;37.770;2022-12-05T16:08:25;101805.56;;;-5.15;50.97
63096;BME280;49184;55.596;37.770;2022-12-05T16:11:16;101736.34;;;-5.62;50.91
63096;BME280;49184;55.596;37.770;2022-12-05T16:13:50;101804.94;;;-5.37;51.40
63096;BME280;49184;55.596;37.770;2022-12-05T16:16:23;101829.22;;;-5.40;51.76
63096;BME280;49184;55.596;37.770;2022-12-05T16:19:26;101851.47;;;-5.22;51.77
63096;BME280;49184;55.596;37.770;2022-12-05T16:22:18;101762.00;;;-5.61;51.35
63096;BME280;49184;55.596;37.770;2022-12-05T16:25:30;101764.41;;;-5.96;52.52
63096;BME280;49184;55.596;37.770;2022-12-05T16:29:01;101754.09;;;-5.91;52.53
63096;BME280;49184;55.596;37.770;2022-12-05T16:35:43;101693.28;;;-6.23;52.63
63096;BME280;49184;55.596;37.770;2022-12-05T16:38:43;101790.31;;;-5.60;52.41
63096;BME280;49184;55.596;37.770;2022-12-05T16:45:08;101776.78;;;-5.77;51.82
63096;BME280;49184;55.596;37.770;2022-12-05T16:48:37;101793.81;;;-5.60;52.15
63096;BME280;49184;55.596;37.770;2022-12-05T16:54:20;101755.31;;;-6.12;52.59
63096;BME280;49184;55.596;37.770;2022-12-05T16:56:53;101781.94;;;-6.12;53.10
63096;BME280;49184;55.596;37.770;2022-12-05T16:59:23;101803.16;;;-5.83;53.13
63096;BME280;49184;55.596;37.770;2022-12-05T17:02:45;101800.69;;;-5.95;52.95
63096;BME280;49184;55.596;37.770;2022-12-05T17:05:14;101738.84;;;-6.35;52.92
63096;BME280;49184;55.596;37.770;2022-12-05T17:07:43;101725.28;;;-6.52;53.39
63096;BME280;49184;55.596;37.770;2022-12-05T17:10:11;101679.94;;;-6.89;53.67
63096;BME280;49184;55.596;37.770;2022-12-05T17:12:38;101698.72;;;-6.81;53.63
63096;BME280;49184;55.596;37.770;2022-12-05T17:15:29;101731.16;;;-6.48;53.70
63096;BME280;49184;55.596;37.770;2022-12-05T17:18:02;101749.50;;;-6.45;53.63
63096;BME280;49184;55.596;37.770;2022-12-05T17:20:37;101762.81;;;-6.35;53.94
63096;BME280;49184;55.596;37.770;2022-12-05T17:23:17;101782.81;;;-6.12;53.72
63096;BME280;49184;55.596;37.770;2022-12-05T17:25:46;101763.72;;;-6.07;53.24
63096;BME280;49184;55.596;37.770;2022-12-05T17:29:10;101729.91;;;-6.44;53.53
63096;BME280;49184;55.596;37.770;2022-12-05T17:31:55;101676.72;;;-6.93;54.07
63096;BME280;49184;55.596;37.770;2022-12-05T17:34:29;101729.47;;;-6.59;54.34
63096;BME280;49184;55.596;37.770;2022-12-05T17:39:50;101773.41;;;-6.26;53.84
63096;BME280;49184;55.596;37.770;2022-12-05T17:45:42;101782.81;;;-6.22;54.00
63096;BME280;49184;55.596;37.770;2022-12-05T17:48:13;101743.31;;;-6.46;54.16
63096;BME280;49184;55.596;37.770;2022-12-05T17:51:03;101748.91;;;-6.39;54.01
63096;BME280;49184;55.596;37.770;2022-12-05T17:53:53;101708.34;;;-6.90;54.37
63096;BME280;49184;55.596;37.770;2022-12-05T17:56:20;101796.84;;;-6.49;54.69
63096;BME280;49184;55.596;37.770;2022-12-05T17:59:24;101686.25;;;-7.19;55.23
63096;BME280;49184;55.596;37.770;2022-12-05T18:01:54;101734.66;;;-6.87;55.17
63096;BME280;49184;55.596;37.770;2022-12-05T18:04:41;101772.47;;;-6.64;55.26